createdAt,value
2022-08-19T00:01:38.077Z,16.80
2022-08-19T00:04:08.416Z,16.80
2022-08-19T00:06:37.129Z,16.70
2022-08-19T00:09:06.742Z,16.70
2022-08-19T00:11:35.538Z,16.60
2022-08-19T00:14:02.384Z,16.50
2022-08-19T00:16:29.594Z,16.50
2022-08-19T00:18:56.781Z,16.60
2022-08-19T00:21:25.654Z,16.70
2022-08-19T00:23:53.590Z,16.60
2022-08-19T00:26:21.414Z,16.50
2022-08-19T00:28:48.235Z,16.40
2022-08-19T00:31:15.111Z,16.40
2022-08-19T00:33:42.837Z,16.30
2022-08-19T00:36:11.203Z,16.30
2022-08-19T00:38:41.809Z,16.20
2022-08-19T00:41:08.793Z,16.20
2022-08-19T00:43:36.039Z,16.30
2022-08-19T00:46:05.717Z,16.20
2022-08-19T00:48:34.543Z,16.20
2022-08-19T00:51:02.628Z,16.20
2022-08-19T00:53:32.407Z,16.30
2022-08-19T00:56:02.068Z,16.30
2022-08-19T00:58:33.338Z,16.20
2022-08-19T01:01:01.679Z,16.20
2022-08-19T01:03:29.248Z,16.30
2022-08-19T01:06:20.064Z,16.30
2022-08-19T01:08:50.222Z,16.20
2022-08-19T01:11:17.664Z,16.10
2022-08-19T01:13:50.042Z,16.20
2022-08-19T01:16:19.707Z,16.10
2022-08-19T01:18:46.976Z,16.10
2022-08-19T01:21:23.967Z,16.00
2022-08-19T01:23:51.742Z,16.00
2022-08-19T01:26:24.767Z,15.90
2022-08-19T01:28:56.147Z,15.90
2022-08-19T01:31:33.455Z,16.00
2022-08-19T01:34:01.848Z,16.00
2022-08-19T01:36:33.638Z,15.90
2022-08-19T01:39:04.391Z,15.80
2022-08-19T01:41:31.387Z,15.80
2022-08-19T01:44:16.950Z,15.70
2022-08-19T01:46:45.423Z,15.70
2022-08-19T01:49:12.276Z,15.80
2022-08-19T01:51:40.481Z,15.90
2022-08-19T01:54:12.479Z,15.90
2022-08-19T01:56:39.637Z,16.00
2022-08-19T01:59:12.491Z,16.00
2022-08-19T02:01:39.452Z,15.90
2022-08-19T02:04:06.798Z,15.80
2022-08-19T02:06:34.184Z,15.70
2022-08-19T02:09:01.370Z,15.80
2022-08-19T02:11:34.562Z,15.80
2022-08-19T02:14:04.257Z,15.90
2022-08-19T02:16:31.680Z,16.00
2022-08-19T02:19:01.492Z,15.80
2022-08-19T02:21:29.671Z,15.60
2022-08-19T02:23:57.073Z,15.50
2022-08-19T02:26:24.491Z,15.50
2022-08-19T02:28:51.465Z,15.50
2022-08-19T02:31:21.197Z,15.50
2022-08-19T02:33:48.920Z,15.60
2022-08-19T02:36:20.562Z,15.50
2022-08-19T02:38:55.116Z,15.50
2022-08-19T02:41:33.728Z,15.40
2022-08-19T02:44:23.042Z,15.40
2022-08-19T02:46:51.722Z,15.40
2022-08-19T02:49:20.000Z,15.40
2022-08-19T02:51:47.343Z,15.50
2022-08-19T02:54:15.524Z,15.50
2022-08-19T02:56:43.884Z,15.40
2022-08-19T02:59:11.217Z,15.40
2022-08-19T03:01:41.546Z,15.40
2022-08-19T03:04:10.707Z,15.30
2022-08-19T03:06:39.699Z,15.30
2022-08-19T03:09:06.676Z,15.10
2022-08-19T03:11:34.515Z,15.20
2022-08-19T03:14:02.405Z,15.20
2022-08-19T03:16:33.467Z,15.20
2022-08-19T03:19:02.067Z,15.30
2022-08-19T03:21:31.535Z,15.20
2022-08-19T03:24:00.959Z,15.20
2022-08-19T03:26:28.949Z,15.20
2022-08-19T03:28:58.050Z,15.10
2022-08-19T03:31:43.632Z,15.00
2022-08-19T03:34:18.751Z,14.90
2022-08-19T03:36:46.952Z,14.80
2022-08-19T03:39:14.354Z,14.70
2022-08-19T03:41:45.572Z,14.80
2022-08-19T03:44:19.299Z,14.90
2022-08-19T03:46:52.657Z,14.90
2022-08-19T03:49:20.767Z,15.00
2022-08-19T03:51:49.315Z,15.00
2022-08-19T03:54:20.927Z,15.00
2022-08-19T03:56:50.607Z,14.90
2022-08-19T03:59:30.063Z,14.80
2022-08-19T04:01:59.572Z,14.80
2022-08-19T04:04:29.339Z,14.70
2022-08-19T04:06:57.754Z,14.80
2022-08-19T04:09:25.167Z,14.80
2022-08-19T04:11:57.870Z,14.80
2022-08-19T04:14:30.446Z,14.80
2022-08-19T04:16:57.570Z,14.80
2022-08-19T04:19:24.445Z,14.80
2022-08-19T04:21:53.698Z,14.80
2022-08-19T04:24:21.987Z,14.70
2022-08-19T04:26:49.438Z,14.60
2022-08-19T04:29:26.338Z,14.60
2022-08-19T04:31:56.528Z,14.60
2022-08-19T04:34:25.419Z,14.60
2022-08-19T04:36:54.855Z,14.60
2022-08-19T04:39:49.209Z,14.70
2022-08-19T04:42:36.584Z,14.80
2022-08-19T04:45:05.497Z,14.90
2022-08-19T04:47:47.085Z,14.90
2022-08-19T04:50:18.407Z,15.00
2022-08-19T04:52:45.960Z,15.00
2022-08-19T04:55:13.594Z,15.00
2022-08-19T04:57:41.517Z,15.20
2022-08-19T05:00:10.338Z,15.30
2022-08-19T05:02:38.920Z,15.30
2022-08-19T05:05:07.493Z,15.50
2022-08-19T05:07:34.706Z,15.60
2022-08-19T05:10:01.686Z,15.80
2022-08-19T05:12:30.025Z,15.90
2022-08-19T05:14:58.721Z,16.10
2022-08-19T05:17:32.271Z,16.10
2022-08-19T05:20:20.889Z,16.30
2022-08-19T05:22:48.669Z,16.40
2022-08-19T05:25:20.722Z,16.60
2022-08-19T05:27:48.884Z,16.70
2022-08-19T05:30:17.055Z,16.80
2022-08-19T05:32:44.320Z,17.00
2022-08-19T05:35:12.449Z,17.10
2022-08-19T05:37:41.317Z,17.20
2022-08-19T05:40:09.737Z,17.20
2022-08-19T05:42:36.646Z,17.20
2022-08-19T05:45:04.822Z,17.30
2022-08-19T05:47:32.981Z,17.40
2022-08-19T05:49:59.877Z,17.50
2022-08-19T05:52:29.064Z,17.50
2022-08-19T05:54:57.330Z,17.60
2022-08-19T05:57:25.629Z,17.70
2022-08-19T05:59:58.304Z,17.60
2022-08-19T06:02:31.638Z,17.70
2022-08-19T06:04:58.823Z,17.80
2022-08-19T06:07:25.946Z,17.80
2022-08-19T06:09:56.053Z,17.90
2022-08-19T06:12:35.940Z,17.90
2022-08-19T06:15:13.051Z,18.00
2022-08-19T06:17:41.722Z,18.00
2022-08-19T06:20:12.852Z,18.10
2022-08-19T06:22:41.637Z,18.20
2022-08-19T06:25:10.193Z,18.10
2022-08-19T06:27:41.978Z,18.20
2022-08-19T06:30:18.422Z,18.20
2022-08-19T06:32:45.356Z,18.10
2022-08-19T06:35:12.268Z,18.10
2022-08-19T06:37:43.343Z,18.10
2022-08-19T06:40:12.072Z,18.00
2022-08-19T06:42:39.476Z,18.00
2022-08-19T06:45:11.871Z,17.90
2022-08-19T06:47:38.715Z,18.00
2022-08-19T06:50:06.973Z,18.10
2022-08-19T06:52:36.747Z,18.10
2022-08-19T06:55:06.810Z,18.20
2022-08-19T06:57:34.939Z,18.20
2022-08-19T07:00:02.300Z,18.30
2022-08-19T07:02:29.265Z,18.30
2022-08-19T07:04:59.099Z,18.40
2022-08-19T07:07:26.288Z,18.40
2022-08-19T07:10:00.906Z,18.50
2022-08-19T07:12:48.773Z,18.50
2022-08-19T07:15:16.808Z,18.60
2022-08-19T07:17:45.723Z,18.70
2022-08-19T07:20:20.260Z,18.70
2022-08-19T07:22:47.130Z,18.80
2022-08-19T07:25:14.283Z,18.80
2022-08-19T07:27:41.233Z,18.90
2022-08-19T07:30:12.111Z,19.00
2022-08-19T07:32:39.858Z,19.10
2022-08-19T07:35:07.798Z,19.10
2022-08-19T07:37:36.138Z,19.30
2022-08-19T07:40:04.379Z,19.40
2022-08-19T07:42:31.383Z,19.40
2022-08-19T07:44:59.537Z,19.50
2022-08-19T07:47:47.900Z,19.50
2022-08-19T07:50:15.760Z,19.70
2022-08-19T07:52:48.661Z,19.70
2022-08-19T07:55:40.101Z,19.80
2022-08-19T07:58:07.246Z,19.90
2022-08-19T08:00:34.652Z,20.00
2022-08-19T08:03:01.563Z,20.10
2022-08-19T08:05:47.145Z,20.10
2022-08-19T08:08:32.492Z,20.30
2022-08-19T08:11:00.912Z,20.40
2022-08-19T08:13:29.421Z,20.60
2022-08-19T08:15:57.294Z,20.80
2022-08-19T08:18:27.489Z,21.00
2022-08-19T08:20:56.800Z,21.30
2022-08-19T08:23:25.767Z,21.60
2022-08-19T08:25:58.122Z,21.80
2022-08-19T08:28:29.726Z,21.80
2022-08-19T08:30:58.301Z,21.70
2022-08-19T08:33:33.378Z,21.40
2022-08-19T08:36:12.598Z,21.60
2022-08-19T08:38:40.963Z,21.80
2022-08-19T08:41:28.818Z,21.80
2022-08-19T08:43:58.051Z,21.70
2022-08-19T08:46:41.397Z,21.70
2022-08-19T08:49:35.744Z,21.80
2022-08-19T08:52:16.483Z,21.80
2022-08-19T08:54:55.315Z,22.00
2022-08-19T08:57:28.956Z,22.10
2022-08-19T09:00:15.614Z,22.10
2022-08-19T09:02:43.558Z,22.40
2022-08-19T09:05:16.767Z,22.40
2022-08-19T09:07:49.173Z,22.60
2022-08-19T09:10:34.675Z,22.70
2022-08-19T09:13:38.978Z,22.60
2022-08-19T09:16:28.328Z,22.80
2022-08-19T09:18:59.828Z,22.90
2022-08-19T09:21:33.119Z,23.20
2022-08-19T09:24:00.638Z,23.40
2022-08-19T09:26:47.336Z,23.60
2022-08-19T09:29:15.419Z,23.80
2022-08-19T09:31:44.556Z,23.90
2022-08-19T09:34:21.490Z,24.00
2022-08-19T09:36:56.309Z,24.40
2022-08-19T09:39:23.650Z,24.60
2022-08-19T09:41:53.967Z,25.10
2022-08-19T09:44:21.814Z,25.20
2022-08-19T09:46:49.369Z,25.00
2022-08-19T09:49:22.663Z,25.00
2022-08-19T09:51:54.793Z,25.10
2022-08-19T09:54:23.667Z,25.40
2022-08-19T09:56:55.939Z,25.20
2022-08-19T09:59:23.252Z,25.40
2022-08-19T10:01:50.790Z,25.90
2022-08-19T10:04:20.483Z,26.00
2022-08-19T10:06:53.745Z,25.90
2022-08-19T10:09:26.401Z,26.00
2022-08-19T10:12:03.743Z,26.50
2022-08-19T10:14:31.359Z,26.60
2022-08-19T10:16:59.363Z,27.00
2022-08-19T10:19:26.937Z,27.40
2022-08-19T10:22:00.107Z,27.40
2022-08-19T10:24:28.818Z,27.70
2022-08-19T10:26:58.985Z,27.60
2022-08-19T10:29:33.093Z,27.20
2022-08-19T10:32:09.685Z,27.00
2022-08-19T10:34:48.759Z,26.90
2022-08-19T10:37:29.126Z,27.40
2022-08-19T10:39:59.511Z,27.50
2022-08-19T10:42:26.478Z,27.20
2022-08-19T10:44:53.304Z,27.10
2022-08-19T10:47:25.010Z,26.80
2022-08-19T10:50:12.748Z,27.00
2022-08-19T10:52:49.242Z,27.30
2022-08-19T10:55:40.989Z,27.40
2022-08-19T10:58:26.185Z,27.60
2022-08-19T11:00:58.526Z,27.90
2022-08-19T11:03:28.746Z,28.20
2022-08-19T11:06:06.846Z,28.00
2022-08-19T11:08:35.824Z,28.40
2022-08-19T11:11:04.279Z,28.50
2022-08-19T11:13:33.389Z,28.40
2022-08-19T11:16:08.233Z,28.20
2022-08-19T11:18:45.463Z,28.40
2022-08-19T11:21:22.390Z,28.20
2022-08-19T11:23:53.868Z,28.10
2022-08-19T11:26:22.008Z,27.60
2022-08-19T11:28:49.325Z,26.70
2022-08-19T11:31:20.643Z,27.40
2022-08-19T11:33:48.038Z,27.80
2022-08-19T11:36:16.320Z,28.00
2022-08-19T11:38:45.085Z,28.20
2022-08-19T11:41:12.266Z,28.30
2022-08-19T11:43:40.637Z,28.40
2022-08-19T11:46:15.044Z,28.20
2022-08-19T11:48:42.077Z,28.70
2022-08-19T11:51:11.914Z,28.90
2022-08-19T11:53:39.769Z,28.90
2022-08-19T11:56:09.064Z,28.90
2022-08-19T11:58:36.698Z,29.20
2022-08-19T12:01:08.243Z,29.50
2022-08-19T12:03:35.658Z,29.30
2022-08-19T12:06:11.433Z,29.60
2022-08-19T12:08:45.109Z,29.50
2022-08-19T12:11:14.631Z,29.80
2022-08-19T12:13:45.263Z,29.10
2022-08-19T12:16:15.961Z,28.20
2022-08-19T12:18:51.934Z,28.10
2022-08-19T12:21:22.599Z,28.40
2022-08-19T12:23:55.602Z,29.00
2022-08-19T12:26:23.576Z,29.00
2022-08-19T12:28:50.640Z,29.10
2022-08-19T12:31:18.906Z,28.80
2022-08-19T12:33:45.792Z,28.90
2022-08-19T12:36:15.926Z,29.20
2022-08-19T12:38:44.979Z,29.00
2022-08-19T12:41:14.707Z,29.10
2022-08-19T12:43:42.787Z,29.40
2022-08-19T12:46:11.452Z,29.70
2022-08-19T12:48:42.814Z,29.40
2022-08-19T12:51:13.355Z,29.70
2022-08-19T12:53:40.382Z,29.80
2022-08-19T12:56:12.144Z,29.90
2022-08-19T12:58:39.818Z,29.70
2022-08-19T13:01:12.810Z,30.40
2022-08-19T13:03:40.800Z,30.60
2022-08-19T13:06:09.303Z,30.10
2022-08-19T13:08:36.918Z,29.70
2022-08-19T13:11:16.418Z,30.00
2022-08-19T13:13:45.341Z,30.10
2022-08-19T13:16:13.421Z,30.40
2022-08-19T13:18:41.912Z,30.50
2022-08-19T13:21:14.111Z,29.50
2022-08-19T13:23:41.978Z,29.80
2022-08-19T13:26:11.143Z,29.50
2022-08-19T13:28:57.185Z,29.70
2022-08-19T13:31:44.491Z,29.70
2022-08-19T13:34:12.357Z,29.70
2022-08-19T13:36:39.704Z,30.40
2022-08-19T13:39:09.358Z,30.30
2022-08-19T13:41:37.937Z,30.60
2022-08-19T13:44:07.340Z,30.40
2022-08-19T13:46:34.298Z,30.70
2022-08-19T13:49:01.616Z,30.90
2022-08-19T13:51:28.500Z,31.20
2022-08-19T13:53:56.289Z,31.10
2022-08-19T13:56:26.232Z,31.30
2022-08-19T13:58:54.401Z,31.50
2022-08-19T14:01:24.927Z,31.30
2022-08-19T14:03:52.338Z,31.20
2022-08-19T14:06:19.568Z,31.10
2022-08-19T14:08:47.322Z,29.90
2022-08-19T14:11:14.216Z,29.90
2022-08-19T14:13:41.324Z,29.50
2022-08-19T14:16:10.835Z,29.30
2022-08-19T14:18:39.496Z,29.90
2022-08-19T14:21:07.672Z,29.50
2022-08-19T14:23:36.312Z,28.90
2022-08-19T14:26:11.257Z,29.10
2022-08-19T14:28:38.452Z,29.40
2022-08-19T14:31:05.548Z,30.80
2022-08-19T14:33:33.561Z,31.10
2022-08-19T14:36:01.431Z,31.60
2022-08-19T14:38:32.421Z,31.90
2022-08-19T14:41:14.003Z,31.70
2022-08-19T14:43:40.939Z,32.10
2022-08-19T14:46:09.117Z,32.10
2022-08-19T14:48:39.391Z,32.00
2022-08-19T14:51:08.865Z,32.00
2022-08-19T14:53:36.254Z,31.80
2022-08-19T14:56:11.477Z,31.00
2022-08-19T14:58:39.208Z,30.70
2022-08-19T15:01:06.244Z,30.30
2022-08-19T15:03:33.417Z,30.90
2022-08-19T15:06:05.379Z,31.80
2022-08-19T15:08:34.864Z,31.80
2022-08-19T15:11:02.961Z,31.40
2022-08-19T15:13:31.045Z,30.70
2022-08-19T15:15:58.226Z,29.50
2022-08-19T15:18:25.582Z,29.00
2022-08-19T15:20:52.475Z,28.60
2022-08-19T15:23:20.547Z,28.20
2022-08-19T15:25:47.569Z,28.10
2022-08-19T15:28:16.362Z,27.90
2022-08-19T15:30:44.544Z,28.60
2022-08-19T15:33:15.118Z,29.30
2022-08-19T15:35:43.498Z,29.30
2022-08-19T15:38:11.145Z,29.20
2022-08-19T15:40:37.965Z,28.70
2022-08-19T15:43:04.861Z,28.40
2022-08-19T15:45:33.464Z,28.30
2022-08-19T15:48:03.267Z,28.20
2022-08-19T15:50:36.269Z,28.10
2022-08-19T15:53:07.409Z,28.20
2022-08-19T15:55:37.882Z,28.70
2022-08-19T15:58:30.037Z,29.40
2022-08-19T16:01:22.369Z,29.80
2022-08-19T16:04:13.796Z,29.30
2022-08-19T16:06:53.790Z,28.70
2022-08-19T16:09:27.222Z,28.60
2022-08-19T16:12:01.855Z,28.40
2022-08-19T16:14:31.952Z,28.70
2022-08-19T16:16:59.226Z,29.00
2022-08-19T16:19:26.551Z,28.90
2022-08-19T16:21:55.699Z,28.70
2022-08-19T16:27:22.504Z,28.20
2022-08-19T16:29:50.007Z,27.90
2022-08-19T16:32:17.015Z,28.00
2022-08-19T16:34:44.507Z,28.00
2022-08-19T16:37:11.570Z,27.90
2022-08-19T16:39:40.171Z,27.60
2022-08-19T16:42:11.684Z,27.50
2022-08-19T16:44:45.688Z,27.50
2022-08-19T16:47:13.829Z,28.10
2022-08-19T16:49:54.042Z,28.80
2022-08-19T16:52:25.201Z,29.00
2022-08-19T16:54:52.656Z,28.90
2022-08-19T16:57:19.532Z,28.70
2022-08-19T16:59:48.986Z,28.70
2022-08-19T17:02:21.933Z,28.70
2022-08-19T17:04:57.234Z,28.80
2022-08-19T17:07:33.212Z,28.70
2022-08-19T17:10:02.095Z,28.70
2022-08-19T17:12:31.919Z,28.40
2022-08-19T17:15:00.939Z,28.10
2022-08-19T17:17:29.312Z,28.10
2022-08-19T17:19:56.756Z,28.30
2022-08-19T17:22:23.619Z,28.20
2022-08-19T17:24:50.469Z,28.20
2022-08-19T17:27:17.403Z,28.20
2022-08-19T17:29:47.039Z,28.10
2022-08-19T17:32:15.386Z,28.20
2022-08-19T17:34:42.297Z,28.20
2022-08-19T17:37:09.364Z,27.90
2022-08-19T17:39:39.801Z,27.50
2022-08-19T17:42:08.004Z,27.10
2022-08-19T17:44:36.659Z,26.80
2022-08-19T17:47:04.602Z,26.40
2022-08-19T17:49:33.253Z,26.20
2022-08-19T17:52:00.576Z,25.90
2022-08-19T17:54:33.251Z,25.70
2022-08-19T17:57:01.418Z,25.50
2022-08-19T17:59:30.051Z,25.40
2022-08-19T18:01:57.652Z,25.20
2022-08-19T18:04:26.086Z,24.90
2022-08-19T18:06:54.974Z,24.70
2022-08-19T18:09:28.653Z,24.60
2022-08-19T18:12:08.934Z,24.40
2022-08-19T18:14:37.909Z,24.30
2022-08-19T18:17:14.237Z,24.20
2022-08-19T18:19:43.892Z,24.00
2022-08-19T18:22:31.738Z,23.80
2022-08-19T18:24:59.126Z,23.60
2022-08-19T18:27:27.691Z,23.50
2022-08-19T18:29:59.275Z,23.30
2022-08-19T18:32:31.549Z,23.20
2022-08-19T18:35:01.000Z,23.10
2022-08-19T18:37:27.943Z,23.00
2022-08-19T18:40:13.510Z,23.10
2022-08-19T18:43:05.272Z,23.10
2022-08-19T18:45:51.196Z,23.10
2022-08-19T18:48:37.099Z,23.00
2022-08-19T18:51:04.239Z,22.90
2022-08-19T18:53:34.851Z,22.80
2022-08-19T18:56:02.680Z,22.70
2022-08-19T18:58:35.037Z,22.60
2022-08-19T19:01:11.130Z,22.50
2022-08-19T19:03:50.320Z,22.40
2022-08-19T19:06:20.425Z,22.30
2022-08-19T19:08:48.307Z,22.30
2022-08-19T19:11:20.895Z,22.20
2022-08-19T19:13:49.499Z,22.20
2022-08-19T19:16:16.454Z,22.00
2022-08-19T19:18:44.527Z,22.00
2022-08-19T19:21:11.912Z,21.90
2022-08-19T19:23:40.918Z,21.90
2022-08-19T19:26:10.541Z,21.80
2022-08-19T19:28:43.477Z,21.70
2022-08-19T19:31:18.101Z,21.60
2022-08-19T19:33:45.768Z,21.60
2022-08-19T19:36:13.003Z,21.70
2022-08-19T19:38:48.036Z,21.60
2022-08-19T19:41:19.705Z,21.60
2022-08-19T19:43:46.528Z,21.40
2022-08-19T19:46:14.645Z,21.20
2022-08-19T19:48:42.129Z,21.10
2022-08-19T19:51:09.322Z,20.90
2022-08-19T19:53:37.025Z,20.80
2022-08-19T19:56:04.261Z,20.60
2022-08-19T19:58:32.240Z,20.50
2022-08-19T20:00:59.603Z,20.40
2022-08-19T20:03:27.221Z,20.30
2022-08-19T20:05:54.893Z,20.30
2022-08-19T20:08:40.548Z,20.30
2022-08-19T20:11:07.716Z,20.20
2022-08-19T20:13:35.796Z,20.20
2022-08-19T20:16:03.816Z,20.20
2022-08-19T20:18:30.839Z,20.20
2022-08-19T20:20:57.866Z,20.10
2022-08-19T20:23:25.151Z,20.00
2022-08-19T20:25:52.174Z,20.00
2022-08-19T20:28:22.535Z,19.90
2022-08-19T20:30:50.343Z,20.00
2022-08-19T20:33:17.413Z,19.90
2022-08-19T20:35:45.294Z,19.90
2022-08-19T20:38:12.503Z,19.90
2022-08-19T20:40:40.097Z,19.90
2022-08-19T20:43:12.211Z,19.80
2022-08-19T20:45:39.779Z,19.80
2022-08-19T20:48:08.749Z,19.60
2022-08-19T20:50:36.855Z,19.60
2022-08-19T20:53:19.206Z,19.60
2022-08-19T20:55:49.280Z,19.60
2022-08-19T20:58:22.286Z,19.70
2022-08-19T21:00:50.532Z,19.70
2022-08-19T21:03:20.068Z,19.70
2022-08-19T21:05:47.515Z,19.80
2022-08-19T21:08:17.404Z,19.90
2022-08-19T21:10:49.632Z,20.00
2022-08-19T21:13:17.700Z,20.00
2022-08-19T21:15:44.704Z,20.10
2022-08-19T21:18:13.740Z,20.20
2022-08-19T21:20:41.279Z,20.20
2022-08-19T21:23:18.714Z,20.20
2022-08-19T21:25:52.988Z,20.20
2022-08-19T21:28:34.215Z,20.20
2022-08-19T21:31:05.361Z,20.20
2022-08-19T21:33:32.968Z,20.20
2022-08-19T21:36:00.233Z,20.30
2022-08-19T21:38:27.553Z,20.50
2022-08-19T21:40:55.110Z,20.80
2022-08-19T21:43:22.973Z,20.90
2022-08-19T21:45:51.016Z,21.10
2022-08-19T21:48:18.340Z,21.10
2022-08-19T21:50:48.192Z,21.30
2022-08-19T21:53:18.869Z,21.40
2022-08-19T21:55:52.741Z,21.50
2022-08-19T21:58:28.282Z,21.60
2022-08-19T22:00:58.435Z,21.60
2022-08-19T22:03:25.982Z,21.60
2022-08-19T22:05:53.168Z,21.60
2022-08-19T22:08:20.058Z,21.60
2022-08-19T22:10:46.988Z,21.70
2022-08-19T22:13:14.600Z,21.60
2022-08-19T22:15:42.493Z,21.60
2022-08-19T22:18:10.367Z,21.60
2022-08-19T22:20:37.603Z,21.60
2022-08-19T22:23:06.711Z,21.60
2022-08-19T22:25:37.030Z,21.50
2022-08-19T22:28:07.754Z,21.50
2022-08-19T22:30:41.815Z,21.50
2022-08-19T22:33:12.513Z,21.50
2022-08-19T22:35:41.142Z,21.50
2022-08-19T22:38:10.247Z,21.40
2022-08-19T22:40:40.099Z,21.40
2022-08-19T22:43:10.152Z,21.30
2022-08-19T22:45:37.359Z,21.30
2022-08-19T22:48:07.911Z,21.30
2022-08-19T22:50:36.163Z,21.30
2022-08-19T22:53:04.558Z,21.30
2022-08-19T22:55:31.537Z,21.20
2022-08-19T22:57:59.037Z,21.20
2022-08-19T23:00:28.020Z,21.20
2022-08-19T23:02:57.134Z,21.20
2022-08-19T23:05:27.189Z,21.20
2022-08-19T23:07:57.193Z,21.10
2022-08-19T23:10:27.572Z,21.10
2022-08-19T23:12:57.904Z,21.10
2022-08-19T23:15:27.834Z,21.10
2022-08-19T23:17:57.508Z,21.00
2022-08-19T23:20:27.133Z,21.00
2022-08-19T23:22:55.438Z,21.00
2022-08-19T23:25:26.935Z,21.00
2022-08-19T23:28:12.633Z,20.90
2022-08-19T23:30:44.514Z,20.90
2022-08-19T23:33:42.904Z,20.80
2022-08-19T23:36:16.512Z,20.70
2022-08-19T23:38:45.585Z,20.60
2022-08-19T23:41:14.581Z,20.50
2022-08-19T23:43:42.067Z,20.40
2022-08-19T23:46:11.408Z,20.30
2022-08-19T23:48:39.809Z,20.30
2022-08-19T23:51:09.538Z,20.20
2022-08-19T23:53:38.549Z,20.20
2022-08-19T23:56:07.396Z,20.20
2022-08-19T23:58:37.230Z,20.20
